Etihad Airways Virtual Airport Information Service

Johannesburg OR Tambo International Airport

ICAO: FAOR Country: South Africa
Latitude: -26.1391 Longitude: 28.246
Latest Arrival : ETD4075 (HKJK-FAOR) Latest Departure : ETD603 (FAOR-OMAA)


WX CaptureLIVE
Data provided by noaa.gov | Recorded at 08:23:08

METAR : FAOR 150800Z 33008KT 300V010 CAVOK 24/08 Q1027 NOSIG

TAF : FAOR 150400Z 1506/1612 33010KT CAVOK TX28/1513Z TN14/1603Z BECMG 1510/1512 SCT045 BECMG 1513/1515 VRB03KT PROB30 TEMPO 1514/1516 FEW045TCU PROB30 TEMPO 1514/1518 TS FEW045CB FM151800 VRB03KT CAVOK


Runway Data for FAOR
Data provided by openaviationdata.com

Runway ID Mag Var Hdg Length Elevation Surface ILS Freq ILS Id ILS Slope

Johannesburg OR Tambo International Airport, South Africa
Use only for reference purposes